• Join FlightAware (Why Join?)
  • Login
  • US Flag 
07:28AM EDT


 

Airport Tracker/Info


-or-


 

Live Flight TrackerFlight Track Log ✈ AAL2111 ✈ 28-Apr-2012 ✈ KMIA - SPIM / LIM

Flight Track Log - Related Links

Times and Time Zones

All times are in EDT time to prevent confusion due to time zone crossing. See the AAL2111 flight status page for this flight to view local times or setup timezone preferences in your user account.

Time Position Orientation Groundspeed Altitude Reporting Facility
EDT Latitude Longitude Course Direction KTS MPH feet Rate Location/Type
11:52PM 25.7687 -80.2723 39° Northeast  Level FlightAware Approximate
11:53PM 25.7944 -80.2489 111° Southeast 157 181 1,800  Level Miami Center
11:54PM 25.7731 -80.1883 122° Southeast 216 249 3,400 2,100 Climbing Miami Center
11:54PM 25.7389 -80.1275 172° South 259 298 5,900 1,800 Climbing Miami Center
11:55PM 25.6639 -80.1164 179° South 275 316 6,900 480 Climbing Miami Center
11:57PM 25.5950 -80.1144 166° South 278 320 6,900 720 Level Miami Center
11:58PM 25.5222 -80.0939 156° South 273 314 8,500 1,800 Climbing Miami Center
11:59PM 25.4478 -80.0575 158° South 273 314 10,600 1,560 Climbing Miami Center
12:00AM 25.3611 -80.0183 154° Southeast 305 351 11,700 1,560 Climbing Miami Center
12:01AM 25.2639 -79.9653 147° Southeast 353 406 13,800 2,160 Climbing Miami Center
12:02AM 25.1714 -79.8989 147° Southeast 383 441 16,100 1,980 Climbing Miami Center
12:03AM 25.0767 -79.8322 147° Southeast 402 463 17,900 1,860 Climbing Miami Center
12:04AM 24.9778 -79.7611 147° Southeast 413 475 19,800 1,740 Climbing Miami Center
12:05AM 24.8767 -79.6878 166° South 423 487 21,400 1,500 Climbing Miami Center
12:06AM 24.7603 -79.6553 175° South 423 487 22,900 1,440 Climbing Miami Center
12:07AM 24.6331 -79.6433 175° South 437 503 24,400 1,440 Climbing Miami Center
12:08AM 24.5058 -79.6314 174° South 449 517 25,900 1,440 Climbing Miami Center
12:09AM 24.3808 -79.6172 175° South 460 529 27,300 1,200 Climbing Miami Center
12:10AM 24.2494 -79.6050 173° South 460 529 28,400 1,380 Climbing Miami Center
12:11AM 24.1244 -79.5886 174° South 465 535 30,100 1,260 Climbing Miami Center
12:12AM 23.9972 -79.5744 179° South 460 529 31,000 840 Climbing Miami Center
12:19AM 23.1070 -79.5545 179° South  Level FlightAware Approximate
12:20AM 22.9825 -79.5517 179° South  Level FlightAware Approximate
12:21AM 22.8580 -79.5490 179° South  Level FlightAware Approximate
12:22AM 22.7335 -79.5462 179° South  Level FlightAware Approximate
12:23AM 22.6089 -79.5435 179° South  Level FlightAware Approximate
12:24AM 22.4844 -79.5407 179° South  Level FlightAware Approximate
12:25AM 22.3599 -79.5380 179° South  Level FlightAware Approximate
12:26AM 22.2354 -79.5352 179° South  Level FlightAware Approximate
12:27AM 22.1109 -79.5325 179° South  Level FlightAware Approximate
12:28AM 21.9864 -79.5298 179° South  Level FlightAware Approximate
12:29AM 21.8619 -79.5270 179° South  Level FlightAware Approximate
12:30AM 21.7374 -79.5243 179° South  Level FlightAware Approximate
12:31AM 21.6129 -79.5216 179° South  Level FlightAware Approximate
12:32AM 21.4884 -79.5189 179° South  Level FlightAware Approximate
12:33AM 21.3638 -79.5162 179° South  Level FlightAware Approximate
12:34AM 21.2393 -79.5135 179° South  Level FlightAware Approximate
12:35AM 21.1148 -79.5108 179° South  Level FlightAware Approximate
12:36AM 20.9903 -79.5081 179° South  Level FlightAware Approximate
12:37AM 20.8658 -79.5054 179° South  Level FlightAware Approximate
12:38AM 20.7413 -79.5028 179° South  Level FlightAware Approximate
12:39AM 20.6168 -79.5001 179° South  Level FlightAware Approximate
12:40AM 20.4923 -79.4974 179° South  Level FlightAware Approximate
12:41AM 20.3678 -79.4948 179° South  Level FlightAware Approximate
12:42AM 20.2433 -79.4921 179° South  Level FlightAware Approximate
12:43AM 20.1187 -79.4894 181° South  Level FlightAware Approximate
12:44AM 19.9942 -79.4918 181° South  Level FlightAware Approximate
12:45AM 19.8697 -79.4941 181° South  Level FlightAware Approximate
12:46AM 19.7452 -79.4965 181° South  Level FlightAware Approximate
12:47AM 19.6207 -79.4988 181° South  Level FlightAware Approximate
12:48AM 19.4962 -79.5012 181° South  Level FlightAware Approximate
12:49AM 19.3717 -79.5035 181° South  Level FlightAware Approximate
12:50AM 19.2472 -79.5059 181° South  Level FlightAware Approximate
12:51AM 19.1226 -79.5082 181° South  Level FlightAware Approximate
12:52AM 18.9981 -79.5105 181° South  Level FlightAware Approximate
12:53AM 18.8736 -79.5129 181° South  Level FlightAware Approximate
12:54AM 18.7491 -79.5152 181° South  Level FlightAware Approximate
12:55AM 18.6246 -79.5175 181° South  Level FlightAware Approximate
12:56AM 18.5001 -79.5198 181° South  Level FlightAware Approximate
12:57AM 18.3756 -79.5221 181° South  Level FlightAware Approximate
12:58AM 18.2511 -79.5245 181° South  Level FlightAware Approximate
12:59AM 18.1265 -79.5268 181° South  Level FlightAware Approximate
01:00AM 18.0020 -79.5291 181° South  Level FlightAware Approximate
01:01AM 17.8775 -79.5314 181° South  Level FlightAware Approximate
01:02AM 17.7530 -79.5337 181° South  Level FlightAware Approximate
01:03AM 17.6285 -79.5359 181° South  Level FlightAware Approximate
01:04AM 17.5040 -79.5382 181° South  Level FlightAware Approximate
01:05AM 17.3794 -79.5405 181° South  Level FlightAware Approximate
01:06AM 17.2549 -79.5428 181° South  Level FlightAware Approximate
01:07AM 17.1304 -79.5451 181° South  Level FlightAware Approximate
01:08AM 17.0059 -79.5474 181° South  Level FlightAware Approximate
01:09AM 16.8814 -79.5497 181° South  Level FlightAware Approximate
01:10AM 16.7569 -79.5519 181° South  Level FlightAware Approximate
01:11AM 16.6324 -79.5542 181° South  Level FlightAware Approximate
01:12AM 16.5079 -79.5565 181° South  Level FlightAware Approximate
01:13AM 16.3833 -79.5587 181° South  Level FlightAware Approximate
01:14AM 16.2588 -79.5610 181° South  Level FlightAware Approximate
01:15AM 16.1343 -79.5632 181° South  Level FlightAware Approximate
01:16AM 16.0098 -79.5655 181° South  Level FlightAware Approximate
01:17AM 15.8853 -79.5677 181° South  Level FlightAware Approximate
01:18AM 15.7607 -79.5700 181° South  Level FlightAware Approximate
01:19AM 15.6362 -79.5722 181° South  Level FlightAware Approximate
01:20AM 15.5117 -79.5745 181° South  Level FlightAware Approximate
01:21AM 15.3872 -79.5767 181° South  Level FlightAware Approximate
01:22AM 15.2627 -79.5790 181° South  Level FlightAware Approximate
01:23AM 15.1382 -79.5812 181° South  Level FlightAware Approximate
01:24AM 15.0136 -79.5834 175° South  Level FlightAware Approximate
01:25AM 14.8895 -79.5727 175° South  Level FlightAware Approximate
01:26AM 14.7654 -79.5619 175° South  Level FlightAware Approximate
01:27AM 14.6413 -79.5512 175° South  Level FlightAware Approximate
01:28AM 14.5172 -79.5404 175° South  Level FlightAware Approximate
01:29AM 14.3931 -79.5297 175° South  Level FlightAware Approximate
01:30AM 14.2690 -79.5190 175° South  Level FlightAware Approximate
01:31AM 14.1449 -79.5083 175° South  Level FlightAware Approximate
01:32AM 14.0208 -79.4976 175° South  Level FlightAware Approximate
01:33AM 13.8967 -79.4869 175° South  Level FlightAware Approximate
01:34AM 13.7726 -79.4762 175° South  Level FlightAware Approximate
01:35AM 13.6485 -79.4656 175° South  Level FlightAware Approximate
01:36AM 13.5244 -79.4549 175° South  Level FlightAware Approximate
01:37AM 13.4003 -79.4443 175° South  Level FlightAware Approximate
01:38AM 13.2762 -79.4337 175° South  Level FlightAware Approximate
01:39AM 13.1521 -79.4231 175° South  Level FlightAware Approximate
01:40AM 13.0280 -79.4125 175° South  Level FlightAware Approximate
01:41AM 12.9039 -79.4019 175° South  Level FlightAware Approximate
01:42AM 12.7798 -79.3913 175° South  Level FlightAware Approximate
01:43AM 12.6557 -79.3807 175° South  Level FlightAware Approximate
01:44AM 12.5316 -79.3702 175° South  Level FlightAware Approximate
01:45AM 12.4075 -79.3596 175° South  Level FlightAware Approximate
01:46AM 12.2833 -79.3491 175° South  Level FlightAware Approximate
01:47AM 12.1592 -79.3386 175° South  Level FlightAware Approximate
01:48AM 12.0351 -79.3280 175° South  Level FlightAware Approximate
01:49AM 11.9110 -79.3175 175° South  Level FlightAware Approximate
01:50AM 11.7869 -79.3070 175° South  Level FlightAware Approximate
01:51AM 11.6628 -79.2965 175° South  Level FlightAware Approximate
01:52AM 11.5387 -79.2861 175° South  Level FlightAware Approximate
01:53AM 11.4146 -79.2756 175° South  Level FlightAware Approximate
01:54AM 11.2905 -79.2651 175° South  Level FlightAware Approximate
01:55AM 11.1664 -79.2547 175° South  Level FlightAware Approximate
01:56AM 11.0422 -79.2442 175° South  Level FlightAware Approximate
01:57AM 10.9181 -79.2338 175° South  Level FlightAware Approximate
01:58AM 10.7940 -79.2234 175° South  Level FlightAware Approximate
01:59AM 10.6699 -79.2129 175° South  Level FlightAware Approximate
02:00AM 10.5458 -79.2025 175° South  Level FlightAware Approximate
02:01AM 10.4217 -79.1921 175° South  Level FlightAware Approximate
02:02AM 10.2976 -79.1817 175° South  Level FlightAware Approximate
02:03AM 10.1735 -79.1713 175° South  Level FlightAware Approximate
02:04AM 10.0494 -79.1610 175° South  Level FlightAware Approximate
02:05AM 9.9253 -79.1506 175° South  Level FlightAware Approximate
02:06AM 9.8011 -79.1402 175° South  Level FlightAware Approximate
02:07AM 9.6770 -79.1299 175° South  Level FlightAware Approximate
02:08AM 9.5529 -79.1195 175° South  Level FlightAware Approximate
02:09AM 9.4288 -79.1092 175° South  Level FlightAware Approximate
02:10AM 9.3047 -79.0988 175° South  Level FlightAware Approximate
02:11AM 9.1805 -79.0885 175° South  Level FlightAware Approximate
02:12AM 9.0564 -79.0782 175° South  Level FlightAware Approximate
02:13AM 8.9323 -79.0679 175° South  Level FlightAware Approximate
02:14AM 8.8082 -79.0576 175° South  Level FlightAware Approximate
02:15AM 8.6840 -79.0473 175° South  Level FlightAware Approximate
02:16AM 8.5599 -79.0370 175° South  Level FlightAware Approximate
02:17AM 8.4358 -79.0267 175° South  Level FlightAware Approximate
02:18AM 8.3117 -79.0164 175° South  Level FlightAware Approximate
02:19AM 8.1876 -79.0062 175° South  Level FlightAware Approximate
02:20AM 8.0634 -78.9959 175° South  Level FlightAware Approximate
02:21AM 7.9393 -78.9856 175° South  Level FlightAware Approximate
02:22AM 7.8152 -78.9754 175° South  Level FlightAware Approximate
02:23AM 7.6911 -78.9651 175° South  Level FlightAware Approximate
02:24AM 7.5670 -78.9549 175° South  Level FlightAware Approximate
02:25AM 7.4429 -78.9447 175° South  Level FlightAware Approximate
02:26AM 7.3187 -78.9344 175° South  Level FlightAware Approximate
02:27AM 7.1946 -78.9242 175° South  Level FlightAware Approximate
02:28AM 7.0705 -78.9140 175° South  Level FlightAware Approximate
02:29AM 6.9464 -78.9038 175° South  Level FlightAware Approximate
02:30AM 6.8222 -78.8936 175° South  Level FlightAware Approximate
02:31AM 6.6981 -78.8834 175° South  Level FlightAware Approximate
02:32AM 6.5740 -78.8732 175° South  Level FlightAware Approximate
02:33AM 6.4499 -78.8630 175° South  Level FlightAware Approximate
02:34AM 6.3258 -78.8528 175° South  Level FlightAware Approximate
02:35AM 6.2017 -78.8426 175° South  Level FlightAware Approximate
02:36AM 6.0775 -78.8325 175° South  Level FlightAware Approximate
02:37AM 5.9534 -78.8223 175° South  Level FlightAware Approximate
02:38AM 5.8293 -78.8121 175° South  Level FlightAware Approximate
02:39AM 5.7052 -78.8020 175° South  Level FlightAware Approximate
02:40AM 5.5810 -78.7918 175° South  Level FlightAware Approximate
02:41AM 5.4569 -78.7817 175° South  Level FlightAware Approximate
02:42AM 5.3328 -78.7715 175° South  Level FlightAware Approximate
02:43AM 5.2087 -78.7614 175° South  Level FlightAware Approximate
02:44AM 5.0846 -78.7512 175° South  Level FlightAware Approximate
02:45AM 4.9605 -78.7411 175° South  Level FlightAware Approximate
02:46AM 4.8363 -78.7309 175° South  Level FlightAware Approximate
02:47AM 4.7122 -78.7208 175° South  Level FlightAware Approximate
02:48AM 4.5881 -78.7107 175° South  Level FlightAware Approximate
02:49AM 4.4640 -78.7006 175° South  Level FlightAware Approximate
02:50AM 4.3398 -78.6905 175° South  Level FlightAware Approximate
02:51AM 4.2157 -78.6803 175° South  Level FlightAware Approximate
02:52AM 4.0916 -78.6702 175° South  Level FlightAware Approximate
02:53AM 3.9674 -78.6601 175° South  Level FlightAware Approximate
02:54AM 3.8433 -78.6500 175° South  Level FlightAware Approximate
02:55AM 3.7192 -78.6399 175° South  Level FlightAware Approximate
02:56AM 3.5951 -78.6298 175° South  Level FlightAware Approximate
02:57AM 3.4709 -78.6197 175° South  Level FlightAware Approximate
02:58AM 3.3468 -78.6096 175° South  Level FlightAware Approximate
02:59AM 3.2227 -78.5995 175° South  Level FlightAware Approximate
03:00AM 3.0985 -78.5894 175° South  Level FlightAware Approximate
03:01AM 2.9744 -78.5794 175° South  Level FlightAware Approximate
03:02AM 2.8503 -78.5693 175° South  Level FlightAware Approximate
03:03AM 2.7262 -78.5592 175° South  Level FlightAware Approximate
03:04AM 2.6020 -78.5491 175° South  Level FlightAware Approximate
03:05AM 2.4779 -78.5390 174° South  Level FlightAware Approximate
03:06AM 2.3539 -78.5271 174° South  Level FlightAware Approximate
03:07AM 2.2300 -78.5151 174° South  Level FlightAware Approximate
03:08AM 2.1060 -78.5032 174° South  Level FlightAware Approximate
03:09AM 1.9820 -78.4912 174° South  Level FlightAware Approximate
03:10AM 1.8581 -78.4792 174° South  Level FlightAware Approximate
03:11AM 1.7341 -78.4673 174° South  Level FlightAware Approximate
03:12AM 1.6102 -78.4553 174° South  Level FlightAware Approximate
03:13AM 1.4862 -78.4434 174° South  Level FlightAware Approximate
03:14AM 1.3622 -78.4314 174° South  Level FlightAware Approximate
03:15AM 1.2383 -78.4195 174° South  Level FlightAware Approximate
03:16AM 1.1143 -78.4075 174° South  Level FlightAware Approximate
03:17AM 0.9904 -78.3956 174° South  Level FlightAware Approximate
03:18AM 0.8664 -78.3836 174° South  Level FlightAware Approximate
03:19AM 0.7424 -78.3717 174° South  Level FlightAware Approximate
03:20AM 0.6185 -78.3597 174° South  Level FlightAware Approximate
03:21AM 0.4945 -78.3478 174° South  Level FlightAware Approximate
03:22AM 0.3706 -78.3359 174° South  Level FlightAware Approximate
03:23AM 0.2466 -78.3239 174° South  Level FlightAware Approximate
03:24AM 0.1226 -78.3120 174° South  Level FlightAware Approximate
03:25AM -0.0013 -78.3000 174° South  Level FlightAware Approximate
03:26AM -0.1253 -78.2881 174° South  Level FlightAware Approximate
03:27AM -0.2492 -78.2762 174° South  Level FlightAware Approximate
03:28AM -0.3732 -78.2642 174° South  Level FlightAware Approximate
03:29AM -0.4972 -78.2523 174° South  Level FlightAware Approximate
03:30AM -0.6211 -78.2403 174° South  Level FlightAware Approximate
03:31AM -0.7451 -78.2284 174° South  Level FlightAware Approximate
03:32AM -0.8690 -78.2165 174° South  Level FlightAware Approximate
03:33AM -0.9930 -78.2045 174° South  Level FlightAware Approximate
03:34AM -1.1170 -78.1926 174° South  Level FlightAware Approximate
03:35AM -1.2409 -78.1806 174° South  Level FlightAware Approximate
03:36AM -1.3649 -78.1687 174° South  Level FlightAware Approximate
03:37AM -1.4888 -78.1567 174° South  Level FlightAware Approximate
03:38AM -1.6128 -78.1448 174° South  Level FlightAware Approximate
03:39AM -1.7368 -78.1328 174° South  Level FlightAware Approximate
03:40AM -1.8607 -78.1208 174° South  Level FlightAware Approximate
03:41AM -1.9847 -78.1089 174° South  Level FlightAware Approximate
03:42AM -2.1086 -78.0969 174° South  Level FlightAware Approximate
03:43AM -2.2326 -78.0850 174° South  Level FlightAware Approximate
03:44AM -2.3565 -78.0730 174° South  Level FlightAware Approximate
03:45AM -2.4805 -78.0610 174° South  Level FlightAware Approximate
03:46AM -2.6045 -78.0490 174° South  Level FlightAware Approximate
03:47AM -2.7284 -78.0371 174° South  Level FlightAware Approximate
03:48AM -2.8524 -78.0251 174° South  Level FlightAware Approximate
03:49AM -2.9764 -78.0131 174° South  Level FlightAware Approximate
03:50AM -3.1003 -78.0012 174° South  Level FlightAware Approximate
03:51AM -3.2243 -77.9892 174° South  Level FlightAware Approximate
03:52AM -3.3482 -77.9772 174° South  Level FlightAware Approximate
03:53AM -3.4722 -77.9652 174° South  Level FlightAware Approximate
03:54AM -3.5961 -77.9532 174° South  Level FlightAware Approximate
03:55AM -3.7201 -77.9412 174° South  Level FlightAware Approximate
03:56AM -3.8441 -77.9292 174° South  Level FlightAware Approximate
03:57AM -3.9680 -77.9172 174° South  Level FlightAware Approximate
03:58AM -4.0920 -77.9052 174° South  Level FlightAware Approximate
03:59AM -4.2160 -77.8932 174° South  Level FlightAware Approximate
04:00AM -4.3399 -77.8812 174° South  Level FlightAware Approximate
04:01AM -4.4639 -77.8692 174° South  Level FlightAware Approximate
04:02AM -4.5878 -77.8572 174° South  Level FlightAware Approximate
04:03AM -4.7118 -77.8452 174° South  Level FlightAware Approximate
04:04AM -4.8358 -77.8331 174° South  Level FlightAware Approximate
04:05AM -4.9597 -77.8211 174° South  Level FlightAware Approximate
04:06AM -5.0837 -77.8091 174° South  Level FlightAware Approximate
04:07AM -5.2076 -77.7970 174° South  Level FlightAware Approximate
04:08AM -5.3316 -77.7850 174° South  Level FlightAware Approximate
04:09AM -5.4556 -77.7729 174° South  Level FlightAware Approximate
04:10AM -5.5795 -77.7609 174° South  Level FlightAware Approximate
04:11AM -5.7035 -77.7488 174° South  Level FlightAware Approximate
04:12AM -5.8274 -77.7367 174° South  Level FlightAware Approximate
04:13AM -5.9514 -77.7247 174° South  Level FlightAware Approximate
04:14AM -6.0753 -77.7126 174° South  Level FlightAware Approximate
04:15AM -6.1993 -77.7005 174° South  Level FlightAware Approximate
04:16AM -6.3232 -77.6884 174° South  Level FlightAware Approximate
04:17AM -6.4472 -77.6763 174° South  Level FlightAware Approximate
04:18AM -6.5711 -77.6642 174° South  Level FlightAware Approximate
04:19AM -6.6951 -77.6521 174° South  Level FlightAware Approximate
04:20AM -6.8190 -77.6400 174° South  Level FlightAware Approximate
04:21AM -6.9430 -77.6279 174° South  Level FlightAware Approximate
04:22AM -7.0669 -77.6158 174° South  Level FlightAware Approximate
04:23AM -7.1909 -77.6036 174° South  Level FlightAware Approximate
04:24AM -7.3148 -77.5915 174° South  Level FlightAware Approximate
04:25AM -7.4388 -77.5794 174° South  Level FlightAware Approximate
04:26AM -7.5627 -77.5672 174° South  Level FlightAware Approximate
04:27AM -7.6867 -77.5550 174° South  Level FlightAware Approximate
04:28AM -7.8106 -77.5429 174° South  Level FlightAware Approximate
04:29AM -7.9346 -77.5307 174° South  Level FlightAware Approximate
04:30AM -8.0585 -77.5185 174° South  Level FlightAware Approximate
04:31AM -8.1825 -77.5063 174° South  Level FlightAware Approximate
04:32AM -8.3064 -77.4941 174° South  Level FlightAware Approximate
04:33AM -8.4304 -77.4819 174° South  Level FlightAware Approximate
04:34AM -8.5543 -77.4697 174° South  Level FlightAware Approximate
04:35AM -8.6783 -77.4575 174° South  Level FlightAware Approximate
04:36AM -8.8022 -77.4453 174° South  Level FlightAware Approximate
04:37AM -8.9262 -77.4331 174° South  Level FlightAware Approximate
04:38AM -9.0501 -77.4208 174° South  Level FlightAware Approximate
04:39AM -9.1741 -77.4085 174° South  Level FlightAware Approximate
04:40AM -9.2980 -77.3963 174° South  Level FlightAware Approximate
04:41AM -9.4219 -77.3840 174° South  Level FlightAware Approximate
04:42AM -9.5459 -77.3717 174° South  Level FlightAware Approximate
04:43AM -9.6698 -77.3595 174° South  Level FlightAware Approximate
04:44AM -9.7938 -77.3472 174° South  Level FlightAware Approximate
04:45AM -9.9177 -77.3348 174° South  Level FlightAware Approximate
04:46AM -10.0416 -77.3225 174° South  Level FlightAware Approximate
04:47AM -10.1656 -77.3102 174° South  Level FlightAware Approximate
04:48AM -10.2895 -77.2979 174° South  Level FlightAware Approximate
04:49AM -10.4135 -77.2855 174° South  Level FlightAware Approximate
04:50AM -10.5374 -77.2732 174° South  Level FlightAware Approximate
04:51AM -10.6613 -77.2608 174° South  Level FlightAware Approximate
04:52AM -10.7853 -77.2485 174° South  Level FlightAware Approximate
04:53AM -10.9092 -77.2361 174° South  Level FlightAware Approximate
04:54AM -11.0332 -77.2237 174° South  Level FlightAware Approximate
04:55AM -11.1571 -77.2113 204° Southwest  Level FlightAware Approximate
04:56AM -11.2598 -77.2580 170° South  Level FlightAware Approximate
04:57AM -11.3823 -77.2354 170° South  Level FlightAware Approximate